createdAt,value
2018-10-18T00:00:10.795Z,54.40
2018-10-18T00:01:10.694Z,55.20
2018-10-18T00:02:10.817Z,57.00
2018-10-18T00:03:10.734Z,55.00
2018-10-18T00:04:10.732Z,55.40
2018-10-18T00:05:10.749Z,54.90
2018-10-18T00:06:10.907Z,55.30
2018-10-18T00:07:11.142Z,54.70
2018-10-18T00:08:10.802Z,56.40
2018-10-18T00:09:10.805Z,55.50
2018-10-18T00:10:10.817Z,53.40
2018-10-18T00:11:10.834Z,55.20
2018-10-18T00:12:10.925Z,54.80
2018-10-18T00:13:10.859Z,55.00
2018-10-18T00:14:10.916Z,55.70
2018-10-18T00:15:10.885Z,55.00
2018-10-18T00:16:10.904Z,55.60
2018-10-18T00:17:10.909Z,55.20
2018-10-18T00:18:11.017Z,53.70
2018-10-18T00:19:10.936Z,54.10
2018-10-18T00:20:11.025Z,54.80
2018-10-18T00:21:10.964Z,54.30
2018-10-18T00:22:10.974Z,56.20
2018-10-18T00:23:10.988Z,56.00
2018-10-18T00:24:11.023Z,56.10
2018-10-18T00:25:11.044Z,54.60
2018-10-18T00:26:11.100Z,54.80
2018-10-18T00:27:11.039Z,56.60
2018-10-18T00:28:11.054Z,55.10
2018-10-18T00:29:11.065Z,55.60
2018-10-18T00:30:11.215Z,56.10
2018-10-18T00:31:11.093Z,55.90
2018-10-18T00:32:11.180Z,56.30
2018-10-18T00:33:11.122Z,55.40
2018-10-18T00:34:11.134Z,56.00
2018-10-18T00:35:11.153Z,56.00
2018-10-18T00:36:11.264Z,54.70
2018-10-18T00:38:11.280Z,54.30
2018-10-18T00:39:11.400Z,52.50
2018-10-18T00:40:11.448Z,54.00
2018-10-18T00:41:11.271Z,51.70
2018-10-18T00:42:11.354Z,52.10
2018-10-18T00:43:11.254Z,50.20
2018-10-18T00:44:11.376Z,50.50
2018-10-18T00:45:11.284Z,52.30
2018-10-18T00:46:11.298Z,52.40
2018-10-18T00:47:11.325Z,50.50
2018-10-18T00:48:11.380Z,49.70
2018-10-18T00:49:11.338Z,48.80
2018-10-18T00:50:11.448Z,49.70
2018-10-18T00:51:11.365Z,48.50
2018-10-18T00:52:11.379Z,48.50
2018-10-18T00:53:11.392Z,48.80
2018-10-18T00:54:11.497Z,46.30
2018-10-18T00:55:11.421Z,48.50
2018-10-18T00:56:11.517Z,46.40
2018-10-18T00:57:11.447Z,46.60
2018-10-18T00:58:11.460Z,46.40
2018-10-18T00:59:11.473Z,45.90
2018-10-18T01:00:11.677Z,44.80
2018-10-18T01:01:11.503Z,45.80
2018-10-18T01:02:11.608Z,45.30
2018-10-18T01:03:11.530Z,44.70
2018-10-18T01:04:11.543Z,45.80
2018-10-18T01:05:11.556Z,42.40
2018-10-18T01:06:11.684Z,42.60
2018-10-18T01:07:11.583Z,42.40
2018-10-18T01:08:11.696Z,43.60
2018-10-18T01:09:11.612Z,43.80
2018-10-18T01:10:11.624Z,43.20
2018-10-18T01:12:12.047Z,41.80
2018-10-18T01:13:11.666Z,41.60
2018-10-18T01:14:11.748Z,43.40
2018-10-18T01:15:11.692Z,42.20
2018-10-18T01:16:11.708Z,41.40
2018-10-18T01:17:11.721Z,41.90
2018-10-18T01:18:11.796Z,41.50
2018-10-18T01:19:11.746Z,41.70
2018-10-18T01:20:11.848Z,41.20
2018-10-18T01:21:11.775Z,43.10
2018-10-18T01:22:11.789Z,41.90
2018-10-18T01:23:11.801Z,41.50
2018-10-18T01:24:11.891Z,41.30
2018-10-18T01:25:11.834Z,39.80
2018-10-18T01:26:11.942Z,41.30
2018-10-18T01:27:11.864Z,41.10
2018-10-18T01:28:11.874Z,40.20
2018-10-18T01:29:11.885Z,40.20
2018-10-18T01:30:11.943Z,40.80
2018-10-18T01:31:11.911Z,41.00
2018-10-18T01:32:12.000Z,40.30
2018-10-18T01:33:11.938Z,40.70
2018-10-18T01:34:11.952Z,40.00
2018-10-18T01:35:11.967Z,38.50
2018-10-18T01:36:12.052Z,39.50
2018-10-18T01:37:11.993Z,39.90
2018-10-18T01:38:12.071Z,38.00
2018-10-18T01:39:12.019Z,40.30
2018-10-18T01:40:12.034Z,38.60
2018-10-18T01:41:12.048Z,39.30
2018-10-18T01:42:12.142Z,38.60
2018-10-18T01:43:12.080Z,38.20
2018-10-18T01:44:12.253Z,37.90
2018-10-18T01:45:12.103Z,38.30
2018-10-18T01:46:12.119Z,38.10
2018-10-18T01:47:12.669Z,38.30
2018-10-18T01:48:12.163Z,37.60
2018-10-18T01:49:12.161Z,37.80
2018-10-18T01:50:12.264Z,38.80
2018-10-18T01:51:12.184Z,37.70
2018-10-18T01:52:12.198Z,37.70
2018-10-18T01:53:12.211Z,36.50
2018-10-18T01:54:12.391Z,36.50
2018-10-18T01:55:12.241Z,36.60
2018-10-18T01:56:12.325Z,36.30
2018-10-18T01:57:12.266Z,35.40
2018-10-18T01:58:12.283Z,36.00
2018-10-18T01:59:12.293Z,36.70
2018-10-18T02:00:12.477Z,35.60
2018-10-18T02:01:12.327Z,36.30
2018-10-18T02:02:12.386Z,35.80
2018-10-18T02:03:12.352Z,35.50
2018-10-18T02:04:12.364Z,35.10
2018-10-18T02:05:12.376Z,34.60
2018-10-18T02:06:12.465Z,34.70
2018-10-18T02:07:12.403Z,34.30
2018-10-18T02:08:12.531Z,33.70
2018-10-18T02:09:12.436Z,33.90
2018-10-18T02:10:12.443Z,35.20
2018-10-18T02:11:12.457Z,33.90
2018-10-18T02:12:12.501Z,33.10
2018-10-18T02:13:12.488Z,34.20
2018-10-18T02:14:12.497Z,33.50
2018-10-18T02:15:12.516Z,33.70
2018-10-18T02:16:12.580Z,33.70
2018-10-18T02:17:12.539Z,33.40
2018-10-18T02:18:13.072Z,32.50
2018-10-18T02:19:12.751Z,32.90
2018-10-18T02:20:12.581Z,33.50
2018-10-18T02:21:12.596Z,33.70
2018-10-18T02:22:12.612Z,33.40
2018-10-18T02:23:12.621Z,33.80
2018-10-18T02:24:12.733Z,32.70
2018-10-18T02:25:12.755Z,32.40
2018-10-18T02:26:12.668Z,33.70
2018-10-18T02:27:12.678Z,32.90
2018-10-18T02:28:12.693Z,32.30
2018-10-18T02:29:12.704Z,31.70
2018-10-18T02:30:12.831Z,33.30
2018-10-18T02:31:12.732Z,32.60
2018-10-18T02:32:12.750Z,32.30
2018-10-18T02:33:12.769Z,33.00
2018-10-18T02:34:12.776Z,32.10
2018-10-18T02:35:12.788Z,32.00
2018-10-18T02:36:12.841Z,31.40
2018-10-18T02:37:12.821Z,33.10
2018-10-18T02:38:12.827Z,32.50
2018-10-18T02:39:12.839Z,32.20
2018-10-18T02:40:12.853Z,31.10
2018-10-18T02:41:12.870Z,32.20
2018-10-18T02:42:12.991Z,31.40
2018-10-18T02:43:12.895Z,31.20
2018-10-18T02:44:12.907Z,32.20
2018-10-18T02:45:13.074Z,31.80
2018-10-18T02:46:13.287Z,31.90
2018-10-18T02:47:12.951Z,30.10
2018-10-18T02:48:13.610Z,31.00
2018-10-18T02:49:12.976Z,30.80
2018-10-18T02:50:12.991Z,30.20
2018-10-18T02:51:13.004Z,30.70
2018-10-18T02:52:13.023Z,30.50
2018-10-18T02:53:13.032Z,30.70
2018-10-18T02:54:13.131Z,31.00
2018-10-18T02:55:13.058Z,30.00
2018-10-18T02:56:13.072Z,30.20
2018-10-18T02:57:13.085Z,30.50
2018-10-18T02:58:13.100Z,29.50
2018-10-18T02:59:13.113Z,31.30
2018-10-18T03:00:13.205Z,30.00
2018-10-18T03:01:13.140Z,29.80
2018-10-18T03:02:13.166Z,29.70
2018-10-18T03:03:13.169Z,29.70
2018-10-18T03:04:13.183Z,30.80
2018-10-18T03:05:13.197Z,29.50
2018-10-18T03:06:13.301Z,29.90
2018-10-18T03:07:13.225Z,29.90
2018-10-18T03:08:13.236Z,29.00
2018-10-18T03:09:13.277Z,29.40
2018-10-18T03:10:13.265Z,28.80
2018-10-18T03:11:13.278Z,29.40
2018-10-18T03:12:13.314Z,29.00
2018-10-18T03:13:13.308Z,28.40
2018-10-18T03:14:13.320Z,29.80
2018-10-18T03:15:13.334Z,30.00
2018-10-18T03:16:13.430Z,27.50
2018-10-18T03:17:13.359Z,29.10
2018-10-18T03:18:13.545Z,28.30
2018-10-18T03:19:13.386Z,29.40
2018-10-18T03:21:13.698Z,29.00
2018-10-18T03:22:13.435Z,29.10
2018-10-18T03:23:13.446Z,29.30
2018-10-18T03:24:13.536Z,28.50
2018-10-18T03:25:13.468Z,29.70
2018-10-18T03:26:13.481Z,29.70
2018-10-18T03:27:13.495Z,29.30
2018-10-18T03:28:13.509Z,29.60
2018-10-18T03:29:13.523Z,29.60
2018-10-18T03:30:13.622Z,29.40
2018-10-18T03:31:13.550Z,29.30
2018-10-18T03:32:13.566Z,29.00
2018-10-18T03:33:13.581Z,29.80
2018-10-18T03:34:13.591Z,29.20
2018-10-18T03:35:13.605Z,28.90
2018-10-18T03:36:13.670Z,28.30
2018-10-18T03:37:13.634Z,29.10
2018-10-18T03:38:13.648Z,28.50
2018-10-18T03:39:13.659Z,28.50
2018-10-18T03:40:13.672Z,29.40
2018-10-18T03:41:13.688Z,29.00
2018-10-18T03:42:13.775Z,28.10
2018-10-18T03:43:13.716Z,29.20
2018-10-18T03:44:13.733Z,29.30
2018-10-18T03:45:13.765Z,29.00
2018-10-18T03:46:13.766Z,29.40
2018-10-18T03:47:13.770Z,30.30
2018-10-18T03:48:13.789Z,28.30
2018-10-18T03:49:13.795Z,28.70
2018-10-18T03:50:13.814Z,27.40
2018-10-18T03:51:13.828Z,28.90
2018-10-18T03:52:13.841Z,29.10
2018-10-18T03:53:13.851Z,28.00
2018-10-18T03:54:13.916Z,28.10
2018-10-18T03:56:13.893Z,29.00
2018-10-18T03:57:14.126Z,28.70
2018-10-18T03:58:13.922Z,29.10
2018-10-18T03:59:13.941Z,28.60
2018-10-18T04:00:14.070Z,28.50
2018-10-18T04:01:13.958Z,26.80
2018-10-18T04:02:13.980Z,28.30
2018-10-18T04:03:13.989Z,27.30
2018-10-18T04:04:14.001Z,27.30
2018-10-18T04:05:14.014Z,27.80
2018-10-18T04:06:14.119Z,26.60
2018-10-18T04:07:14.042Z,26.70
2018-10-18T04:08:14.056Z,25.10
2018-10-18T04:09:14.078Z,25.50
2018-10-18T04:10:14.083Z,24.10
2018-10-18T04:11:14.104Z,25.80
2018-10-18T04:12:14.265Z,25.00
2018-10-18T04:13:14.161Z,24.40
2018-10-18T04:14:14.139Z,25.20
2018-10-18T04:15:14.152Z,25.20
2018-10-18T04:16:14.171Z,24.60
2018-10-18T04:17:14.184Z,25.30
2018-10-18T04:18:14.241Z,25.10
2018-10-18T04:19:14.206Z,25.10
2018-10-18T04:20:14.221Z,24.40
2018-10-18T04:21:14.233Z,24.90
2018-10-18T04:22:14.247Z,24.60
2018-10-18T04:23:14.259Z,25.10
2018-10-18T04:24:14.279Z,23.90
2018-10-18T04:25:14.287Z,24.40
2018-10-18T04:26:14.302Z,22.90
2018-10-18T04:27:14.315Z,23.80
2018-10-18T04:28:14.334Z,24.20
2018-10-18T04:29:14.512Z,23.60
2018-10-18T04:30:14.903Z,23.90
2018-10-18T04:31:14.985Z,23.40
2018-10-18T04:32:14.390Z,23.40
2018-10-18T04:33:14.404Z,22.30
2018-10-18T04:34:14.411Z,22.40
2018-10-18T04:35:14.464Z,23.20
2018-10-18T04:36:14.481Z,23.20
2018-10-18T04:37:14.462Z,23.70
2018-10-18T04:38:14.481Z,22.20
2018-10-18T04:39:14.477Z,22.80
2018-10-18T04:40:14.521Z,23.60
2018-10-18T04:41:15.195Z,23.20
2018-10-18T04:42:14.587Z,23.40
2018-10-18T04:43:15.745Z,23.60
2018-10-18T04:44:14.548Z,24.10
2018-10-18T04:45:14.559Z,22.90
2018-10-18T04:46:14.767Z,23.30
2018-10-18T04:47:14.680Z,22.90
2018-10-18T04:48:14.678Z,23.10
2018-10-18T04:49:15.994Z,24.00
2018-10-18T04:50:14.631Z,23.30
2018-10-18T04:51:15.284Z,23.70
2018-10-18T04:52:14.653Z,23.00
2018-10-18T04:53:14.667Z,23.50
2018-10-18T04:54:14.686Z,24.60
2018-10-18T04:55:14.727Z,24.70
2018-10-18T04:56:14.711Z,23.60
2018-10-18T04:57:14.931Z,23.80
2018-10-18T04:58:14.751Z,24.80
2018-10-18T04:59:14.755Z,24.10
2018-10-18T05:02:15.029Z,24.20
2018-10-18T05:03:14.839Z,23.60
2018-10-18T05:04:14.865Z,24.60
2018-10-18T05:05:14.846Z,23.40
2018-10-18T05:06:14.850Z,23.50
2018-10-18T05:07:14.965Z,22.90
2018-10-18T05:08:14.873Z,24.30
2018-10-18T05:09:14.896Z,23.70
2018-10-18T05:10:14.902Z,24.70
2018-10-18T05:11:14.970Z,23.60
2018-10-18T05:12:14.979Z,23.30
2018-10-18T05:13:15.243Z,23.00
2018-10-18T05:14:14.965Z,23.90
2018-10-18T05:15:14.966Z,22.20
2018-10-18T05:16:14.989Z,22.70
2018-10-18T05:18:15.825Z,23.40
2018-10-18T05:19:15.073Z,22.30
2018-10-18T05:20:15.295Z,21.70
2018-10-18T05:21:15.083Z,22.30
2018-10-18T05:22:15.328Z,21.40
2018-10-18T05:23:15.251Z,21.60
2018-10-18T05:24:15.105Z,21.50
2018-10-18T05:25:15.274Z,21.50
2018-10-18T05:26:15.126Z,21.50
2018-10-18T05:27:15.137Z,21.30
2018-10-18T05:28:15.148Z,21.40
2018-10-18T05:29:15.190Z,21.60
2018-10-18T05:30:15.172Z,20.90
2018-10-18T05:31:15.322Z,21.40
2018-10-18T05:32:15.201Z,20.70
2018-10-18T05:33:15.271Z,20.30
2018-10-18T05:35:15.412Z,21.00
2018-10-18T05:36:15.261Z,21.90
2018-10-18T05:37:16.004Z,21.70
2018-10-18T05:38:15.283Z,22.20
2018-10-18T05:39:15.323Z,21.50
2018-10-18T05:40:15.335Z,22.70
2018-10-18T05:41:15.324Z,20.90
2018-10-18T05:42:15.335Z,21.10
2018-10-18T05:43:15.418Z,21.40
2018-10-18T05:44:15.369Z,20.90
2018-10-18T05:45:15.376Z,21.40
2018-10-18T05:46:15.391Z,20.50
2018-10-18T05:47:15.499Z,21.60
2018-10-18T05:48:15.418Z,21.30
2018-10-18T05:49:15.985Z,21.10
2018-10-18T05:50:15.802Z,20.00
2018-10-18T05:51:15.460Z,20.60
2018-10-18T05:52:15.582Z,20.50
2018-10-18T05:53:15.763Z,20.60
2018-10-18T05:54:15.580Z,20.80
2018-10-18T05:55:15.622Z,20.40
2018-10-18T05:56:15.580Z,19.10
2018-10-18T05:57:15.539Z,20.20
2018-10-18T05:58:15.582Z,19.10
2018-10-18T05:59:15.577Z,19.80
2018-10-18T06:00:15.621Z,20.30
2018-10-18T06:01:15.647Z,19.80
2018-10-18T06:02:15.798Z,20.40
2018-10-18T06:03:15.656Z,19.90
2018-10-18T06:04:15.697Z,19.80
2018-10-18T06:05:15.859Z,19.20
2018-10-18T06:06:15.664Z,19.70
2018-10-18T06:07:16.448Z,20.00
2018-10-18T06:08:15.694Z,19.00
2018-10-18T06:09:15.919Z,18.70
2018-10-18T06:10:15.762Z,18.90
2018-10-18T06:11:15.749Z,18.40
2018-10-18T06:12:15.741Z,18.50
2018-10-18T06:13:15.886Z,19.60
2018-10-18T06:14:15.783Z,19.20
2018-10-18T06:15:15.791Z,18.70
2018-10-18T06:16:15.790Z,19.30
2018-10-18T06:17:15.813Z,19.20
2018-10-18T06:18:15.812Z,18.90
2018-10-18T06:19:15.895Z,18.80
2018-10-18T06:20:15.844Z,19.30
2018-10-18T06:21:15.854Z,19.20
2018-10-18T06:22:15.866Z,19.40
2018-10-18T06:23:15.952Z,19.60
2018-10-18T06:24:15.894Z,19.40
2018-10-18T06:25:16.087Z,20.00
2018-10-18T06:26:15.930Z,21.00
2018-10-18T06:27:16.139Z,20.60
2018-10-18T06:28:15.947Z,20.90
2018-10-18T06:29:16.026Z,20.30
2018-10-18T06:30:15.991Z,20.80
2018-10-18T06:31:16.045Z,21.30
2018-10-18T06:32:16.003Z,21.00
2018-10-18T06:33:16.017Z,19.70
2018-10-18T06:34:16.028Z,21.30
2018-10-18T06:35:16.091Z,19.60
2018-10-18T06:38:16.083Z,19.40
2018-10-18T06:39:16.159Z,18.50
2018-10-18T06:40:16.110Z,19.40
2018-10-18T06:41:16.248Z,20.10
2018-10-18T06:42:16.139Z,19.20
2018-10-18T06:43:16.236Z,20.10
2018-10-18T06:44:17.002Z,19.70
2018-10-18T06:45:16.179Z,19.70
2018-10-18T06:46:16.190Z,19.20
2018-10-18T06:47:16.299Z,19.40
2018-10-18T06:48:16.229Z,20.10
2018-10-18T06:49:16.402Z,19.10
2018-10-18T06:50:16.242Z,19.30
2018-10-18T06:51:16.259Z,19.70
2018-10-18T06:52:16.272Z,19.60
2018-10-18T06:53:16.292Z,19.00
2018-10-18T06:54:16.521Z,19.10
2018-10-18T06:55:16.403Z,19.60
2018-10-18T06:56:16.326Z,18.40
2018-10-18T06:57:16.339Z,18.90
2018-10-18T06:58:16.364Z,18.20
2018-10-18T06:59:16.368Z,19.50
2018-10-18T07:00:16.437Z,18.10
2018-10-18T07:01:16.395Z,19.10
2018-10-18T07:03:16.422Z,18.00
2018-10-18T07:04:16.469Z,17.80
2018-10-18T07:05:16.446Z,17.70
2018-10-18T07:06:16.553Z,18.30
2018-10-18T07:07:16.476Z,17.70
2018-10-18T07:08:16.489Z,17.50
2018-10-18T07:09:16.501Z,18.40
2018-10-18T07:10:16.521Z,17.70
2018-10-18T07:11:16.532Z,17.30
2018-10-18T07:12:16.555Z,16.80
2018-10-18T07:13:16.559Z,17.80
2018-10-18T07:14:16.575Z,16.60
2018-10-18T07:15:16.600Z,17.40
2018-10-18T07:16:16.808Z,17.10
2018-10-18T07:17:16.610Z,16.20
2018-10-18T07:18:16.722Z,17.40
2018-10-18T07:19:16.646Z,16.80
2018-10-18T07:20:16.661Z,17.40
2018-10-18T07:21:16.665Z,16.60
2018-10-18T07:22:16.677Z,16.50
2018-10-18T07:23:16.692Z,16.70
2018-10-18T07:24:16.852Z,16.10
2018-10-18T07:25:16.829Z,16.50
2018-10-18T07:26:16.732Z,15.70
2018-10-18T07:27:16.744Z,15.60
2018-10-18T07:28:16.809Z,16.20
2018-10-18T07:29:16.773Z,16.70
2018-10-18T07:30:16.819Z,16.60
2018-10-18T07:31:16.803Z,15.70
2018-10-18T07:32:16.816Z,16.70
2018-10-18T07:33:16.838Z,17.30
2018-10-18T07:34:16.839Z,16.60
2018-10-18T07:35:16.854Z,17.10
2018-10-18T07:36:17.032Z,16.70
2018-10-18T07:37:16.883Z,15.90
2018-10-18T07:38:16.895Z,16.50
2018-10-18T07:39:17.008Z,16.30
2018-10-18T07:40:17.123Z,16.40
2018-10-18T07:41:17.042Z,16.80
2018-10-18T07:42:17.047Z,17.50
2018-10-18T07:43:16.980Z,17.20
2018-10-18T07:44:16.988Z,17.10
2018-10-18T07:45:16.989Z,18.00
2018-10-18T07:46:17.001Z,18.00
2018-10-18T07:47:17.014Z,17.70
2018-10-18T07:48:17.119Z,17.90
2018-10-18T07:49:17.043Z,16.70
2018-10-18T07:50:17.055Z,17.30
2018-10-18T07:51:17.073Z,16.90
2018-10-18T07:52:17.082Z,17.40
2018-10-18T07:53:17.220Z,17.30
2018-10-18T07:54:18.164Z,17.60
2018-10-18T07:55:17.137Z,16.70
2018-10-18T07:56:17.162Z,17.30
2018-10-18T07:57:17.150Z,16.90
2018-10-18T07:58:17.165Z,17.20
2018-10-18T07:59:17.176Z,15.80
2018-10-18T08:00:17.333Z,16.80
2018-10-18T08:01:17.262Z,17.20
2018-10-18T08:02:17.222Z,16.50
2018-10-18T08:04:17.249Z,16.50
2018-10-18T08:05:17.700Z,16.80
2018-10-18T08:06:17.285Z,15.90
2018-10-18T08:07:17.394Z,16.00
2018-10-18T08:08:17.300Z,16.30
2018-10-18T08:09:17.315Z,16.30
2018-10-18T08:10:17.326Z,16.60
2018-10-18T08:11:17.340Z,15.60
2018-10-18T08:12:17.458Z,15.70
2018-10-18T08:13:17.549Z,15.70
2018-10-18T08:14:17.392Z,15.70
2018-10-18T08:15:17.405Z,16.30
2018-10-18T08:16:17.416Z,15.20
2018-10-18T08:17:17.538Z,14.70
2018-10-18T08:18:17.439Z,14.70
2018-10-18T08:19:17.561Z,13.50
2018-10-18T08:20:17.462Z,14.00
2018-10-18T08:21:17.480Z,14.00
2018-10-18T08:22:17.491Z,14.70
2018-10-18T08:23:17.503Z,14.60
2018-10-18T08:24:17.517Z,14.70
2018-10-18T08:25:17.572Z,15.20
2018-10-18T08:26:17.735Z,14.30
2018-10-18T08:27:17.562Z,15.30
2018-10-18T08:28:17.575Z,16.20
2018-10-18T08:29:17.595Z,15.10
2018-10-18T08:30:17.628Z,15.60
2018-10-18T08:31:17.892Z,15.40
2018-10-18T08:32:17.629Z,15.00
2018-10-18T08:33:17.635Z,14.40
2018-10-18T08:34:17.649Z,15.60
2018-10-18T08:35:17.666Z,15.70
2018-10-18T08:36:17.676Z,15.40
2018-10-18T08:37:17.734Z,15.80
2018-10-18T08:38:17.796Z,15.30
2018-10-18T08:39:17.717Z,15.70
2018-10-18T08:40:17.732Z,15.00
2018-10-18T08:41:17.744Z,16.10
2018-10-18T08:42:18.148Z,15.50
2018-10-18T08:43:17.836Z,15.90
2018-10-18T08:44:17.841Z,15.00
2018-10-18T08:45:17.856Z,14.60
2018-10-18T08:46:18.027Z,15.10
2018-10-18T08:47:17.893Z,15.10
2018-10-18T08:48:17.840Z,15.60
2018-10-18T08:49:17.934Z,15.70
2018-10-18T08:50:17.866Z,15.10
2018-10-18T08:51:17.885Z,15.60
2018-10-18T08:52:17.895Z,15.20
2018-10-18T08:53:17.909Z,15.30
2018-10-18T08:54:17.920Z,15.60
2018-10-18T08:55:18.060Z,15.80
2018-10-18T08:56:18.032Z,15.10
2018-10-18T08:57:17.987Z,14.60
2018-10-18T08:58:18.004Z,15.60
2018-10-18T08:59:18.076Z,15.10
2018-10-18T09:00:18.005Z,13.90
2018-10-18T09:01:18.149Z,14.10
2018-10-18T09:02:18.033Z,14.20
2018-10-18T09:03:18.045Z,14.40
2018-10-18T09:04:18.061Z,15.30
2018-10-18T09:05:18.072Z,14.40
2018-10-18T09:06:18.085Z,13.90
2018-10-18T09:07:18.193Z,14.30
2018-10-18T09:08:18.112Z,14.40
2018-10-18T09:09:18.136Z,14.90
2018-10-18T09:10:18.138Z,14.40
2018-10-18T09:11:18.153Z,14.80
2018-10-18T09:12:18.178Z,15.20
2018-10-18T09:13:18.327Z,15.50
2018-10-18T09:14:18.195Z,15.10
2018-10-18T09:15:18.210Z,13.90
2018-10-18T09:16:18.272Z,13.60
2018-10-18T09:17:18.665Z,14.40
2018-10-18T09:18:18.249Z,15.40
2018-10-18T09:19:18.324Z,14.00
2018-10-18T09:20:18.278Z,14.40
2018-10-18T09:21:18.299Z,14.00
2018-10-18T09:22:18.305Z,14.30
2018-10-18T09:23:18.319Z,14.90
2018-10-18T09:24:18.336Z,14.80
2018-10-18T09:25:18.442Z,14.60
2018-10-18T09:26:18.421Z,14.50
2018-10-18T09:27:18.374Z,15.20
2018-10-18T09:28:18.397Z,14.90
2018-10-18T09:29:18.402Z,15.80
2018-10-18T09:30:18.540Z,15.50
2018-10-18T09:31:18.514Z,15.80
2018-10-18T09:32:18.749Z,15.40
2018-10-18T09:33:18.457Z,15.20
2018-10-18T09:34:18.473Z,16.20
2018-10-18T09:35:18.484Z,16.00
2018-10-18T09:36:18.498Z,15.70
2018-10-18T09:37:18.610Z,15.70
2018-10-18T09:38:18.582Z,15.00
2018-10-18T09:39:18.541Z,14.70
2018-10-18T09:40:18.556Z,15.20
2018-10-18T09:41:18.566Z,16.20
2018-10-18T09:42:18.585Z,14.60
2018-10-18T09:43:18.963Z,15.30
2018-10-18T09:44:18.667Z,14.50
2018-10-18T09:45:18.622Z,13.90
2018-10-18T09:46:18.690Z,13.60
2018-10-18T09:47:18.649Z,14.00
2018-10-18T09:48:18.663Z,14.00
2018-10-18T09:49:18.805Z,14.10
2018-10-18T09:50:18.762Z,14.20
2018-10-18T09:51:18.705Z,14.20
2018-10-18T09:52:18.721Z,15.10
2018-10-18T09:53:18.752Z,14.30
2018-10-18T09:54:18.950Z,14.20
2018-10-18T09:55:18.906Z,13.90
2018-10-18T09:56:18.855Z,12.90
2018-10-18T09:57:18.789Z,13.20
2018-10-18T09:58:18.840Z,13.20
2018-10-18T09:59:18.817Z,12.30
2018-10-18T10:00:18.831Z,12.90
2018-10-18T10:01:18.912Z,12.10
2018-10-18T10:02:19.188Z,13.00
2018-10-18T10:03:19.620Z,12.50
2018-10-18T10:04:18.950Z,13.60
2018-10-18T10:05:18.901Z,13.60
2018-10-18T10:06:18.919Z,13.60
2018-10-18T10:07:18.931Z,13.60
2018-10-18T10:08:18.945Z,13.90
2018-10-18T10:09:18.959Z,13.70
2018-10-18T10:10:18.971Z,13.60
2018-10-18T10:11:18.985Z,13.50
2018-10-18T10:12:19.000Z,13.60
2018-10-18T10:13:19.154Z,14.00
2018-10-18T10:14:19.029Z,14.30
2018-10-18T10:15:19.041Z,13.50
2018-10-18T10:16:19.059Z,14.10
2018-10-18T10:17:19.141Z,14.40
2018-10-18T10:18:19.200Z,13.20
2018-10-18T10:19:19.152Z,12.50
2018-10-18T10:20:19.491Z,13.40
2018-10-18T10:21:19.133Z,12.60
2018-10-18T10:22:19.155Z,14.40
2018-10-18T10:23:19.162Z,14.20
2018-10-18T10:24:19.198Z,15.00
2018-10-18T10:25:19.257Z,14.60
2018-10-18T10:26:19.211Z,14.80
2018-10-18T10:27:19.214Z,14.50
2018-10-18T10:28:19.235Z,14.90
2018-10-18T10:29:19.246Z,16.10
2018-10-18T10:30:19.479Z,16.20
2018-10-18T10:31:19.415Z,17.60
2018-10-18T10:32:19.289Z,17.20
2018-10-18T10:33:19.342Z,17.20
2018-10-18T10:34:19.316Z,18.40
2018-10-18T10:35:19.356Z,18.30
2018-10-18T10:36:19.748Z,16.00
2018-10-18T10:37:19.433Z,15.00
2018-10-18T10:38:19.412Z,14.90
2018-10-18T10:39:19.527Z,15.60
2018-10-18T10:40:19.437Z,15.70
2018-10-18T10:41:19.420Z,15.60
2018-10-18T10:42:19.525Z,15.30
2018-10-18T10:43:19.443Z,15.30
2018-10-18T10:44:19.544Z,14.90
2018-10-18T10:45:19.671Z,14.70
2018-10-18T10:46:19.513Z,13.60
2018-10-18T10:47:19.505Z,14.10
2018-10-18T10:48:19.683Z,13.60
2018-10-18T10:49:19.562Z,13.90
2018-10-18T10:50:19.633Z,13.00
2018-10-18T10:51:19.647Z,12.80
2018-10-18T10:52:19.695Z,13.20
2018-10-18T10:53:19.587Z,14.30
2018-10-18T10:54:19.722Z,13.80
2018-10-18T10:55:19.614Z,14.10
2018-10-18T10:56:19.638Z,15.60
2018-10-18T10:57:19.641Z,14.30
2018-10-18T10:58:19.752Z,13.80
2018-10-18T10:59:19.672Z,14.50
2018-10-18T11:00:20.002Z,14.20
2018-10-18T11:01:19.698Z,14.10
2018-10-18T11:02:19.709Z,14.00
2018-10-18T11:03:19.770Z,14.00
2018-10-18T11:04:19.738Z,13.50
2018-10-18T11:05:19.753Z,13.10
2018-10-18T11:06:19.837Z,12.40
2018-10-18T11:07:19.781Z,11.80
2018-10-18T11:08:19.794Z,11.90
2018-10-18T11:09:19.964Z,11.10
2018-10-18T11:10:19.824Z,11.00
2018-10-18T11:11:19.837Z,10.90
2018-10-18T11:12:19.913Z,11.30
2018-10-18T11:13:20.243Z,11.10
2018-10-18T11:14:20.042Z,10.70
2018-10-18T11:15:19.985Z,10.30
2018-10-18T11:16:19.937Z,10.10
2018-10-18T11:17:20.059Z,10.40
2018-10-18T11:18:19.935Z,9.70
2018-10-18T11:19:19.954Z,9.20
2018-10-18T11:20:19.965Z,9.50
2018-10-18T11:21:20.068Z,8.80
2018-10-18T11:22:19.992Z,7.70
2018-10-18T11:23:20.157Z,8.80
2018-10-18T11:24:20.165Z,7.80
2018-10-18T11:25:20.036Z,7.40
2018-10-18T11:26:20.175Z,6.80
2018-10-18T11:27:21.344Z,6.60
2018-10-18T11:28:20.084Z,6.50
2018-10-18T11:29:20.094Z,6.20
2018-10-18T11:30:20.237Z,5.80
2018-10-18T11:31:20.122Z,5.90
2018-10-18T11:32:20.139Z,6.00
2018-10-18T11:33:20.155Z,6.40
2018-10-18T11:34:20.197Z,6.40
2018-10-18T11:35:20.205Z,6.10
2018-10-18T11:36:20.469Z,6.80
2018-10-18T11:37:20.211Z,6.70
2018-10-18T11:38:20.237Z,6.90
2018-10-18T11:39:20.294Z,7.30
2018-10-18T11:40:20.488Z,6.60
2018-10-18T11:41:20.344Z,6.90
2018-10-18T11:42:20.409Z,7.30
2018-10-18T11:43:20.303Z,7.00
2018-10-18T11:44:20.437Z,6.80
2018-10-18T11:45:20.339Z,7.00
2018-10-18T11:46:20.347Z,7.10
2018-10-18T11:47:20.356Z,7.60
2018-10-18T11:48:20.365Z,7.60
2018-10-18T11:49:20.379Z,7.50
2018-10-18T11:50:20.394Z,7.80
2018-10-18T11:51:20.456Z,8.30
2018-10-18T11:52:20.482Z,8.40
2018-10-18T11:53:20.437Z,8.10
2018-10-18T11:54:20.548Z,9.30
2018-10-18T11:55:20.568Z,8.50
2018-10-18T11:56:20.669Z,8.80
2018-10-18T11:57:20.494Z,8.60
2018-10-18T11:58:20.521Z,8.80
2018-10-18T11:59:20.524Z,9.60
2018-10-18T12:00:20.538Z,8.90
2018-10-18T12:01:20.717Z,8.80
2018-10-18T12:02:20.764Z,8.90
2018-10-18T12:03:20.579Z,8.90
2018-10-18T12:04:20.594Z,8.50
2018-10-18T12:05:20.611Z,9.20
2018-10-18T12:06:20.622Z,9.30
2018-10-18T12:07:20.635Z,10.10
2018-10-18T12:08:20.655Z,9.10
2018-10-18T12:09:20.665Z,9.40
2018-10-18T12:10:20.782Z,10.40
2018-10-18T12:11:20.692Z,10.10
2018-10-18T12:12:20.710Z,10.70
2018-10-18T12:13:21.710Z,11.40
2018-10-18T12:14:20.734Z,10.30
2018-10-18T12:15:20.798Z,12.50
2018-10-18T12:16:20.762Z,10.40
2018-10-18T12:17:20.919Z,10.60
2018-10-18T12:19:20.819Z,10.40
2018-10-18T12:20:23.560Z,9.90
2018-10-18T12:21:23.530Z,10.60
2018-10-18T12:22:21.464Z,9.70
2018-10-18T12:23:20.865Z,9.90
2018-10-18T12:24:21.226Z,10.20
2018-10-18T12:26:20.938Z,9.10
2018-10-18T12:27:20.924Z,9.00
2018-10-18T12:29:20.961Z,9.60
2018-10-18T12:30:22.516Z,10.10
2018-10-18T12:31:22.469Z,9.00
2018-10-18T12:32:21.725Z,10.00
2018-10-18T12:33:21.106Z,9.90
2018-10-18T12:34:23.274Z,9.00
2018-10-18T12:35:21.082Z,9.50
2018-10-18T12:36:23.675Z,9.10
2018-10-18T12:37:21.082Z,8.70
2018-10-18T12:38:21.077Z,8.80
2018-10-18T12:39:21.417Z,8.60
2018-10-18T12:40:21.181Z,7.40
2018-10-18T12:41:21.266Z,6.90
2018-10-18T12:42:21.657Z,5.90
2018-10-18T12:43:21.145Z,5.80
2018-10-18T12:44:21.169Z,6.30
2018-10-18T12:45:21.175Z,6.20
2018-10-18T12:46:21.330Z,5.70
2018-10-18T12:47:21.202Z,6.10
2018-10-18T12:48:21.374Z,6.10
2018-10-18T12:49:21.382Z,6.00
2018-10-18T12:50:21.891Z,4.80
2018-10-18T12:51:21.511Z,5.00
2018-10-18T12:52:23.357Z,4.80
2018-10-18T12:53:23.300Z,4.80
2018-10-18T12:55:22.134Z,4.90
2018-10-18T12:56:22.404Z,4.40
2018-10-18T12:57:22.751Z,4.90
2018-10-18T12:58:22.203Z,5.50
2018-10-18T12:59:22.526Z,4.90
2018-10-18T13:00:22.036Z,4.70
2018-10-18T13:01:21.404Z,4.90
2018-10-18T13:02:21.653Z,5.10
2018-10-18T13:03:21.426Z,4.60
2018-10-18T13:04:21.480Z,5.70
2018-10-18T13:05:21.469Z,5.30
2018-10-18T13:06:21.497Z,5.30
2018-10-18T13:08:21.508Z,5.00
2018-10-18T13:09:21.517Z,4.90
2018-10-18T13:10:21.531Z,5.00
2018-10-18T13:11:22.322Z,4.70
2018-10-18T13:12:21.810Z,4.10